sensor_id;sensor_type;location;lat;lon;timestamp;pressure;altitude;pressure_sealevel;temperature;humidity
35649;BME280;21768;48.562;13.414;2023-06-22T00:02:05;97578.97;;;21.67;66.96
35649;BME280;21768;48.562;13.414;2023-06-22T00:04:30;97576.41;;;21.67;67.05
35649;BME280;21768;48.562;13.414;2023-06-22T00:06:55;97574.47;;;21.58;66.85
35649;BME280;21768;48.562;13.414;2023-06-22T00:09:21;97570.03;;;21.51;67.03
35649;BME280;21768;48.562;13.414;2023-06-22T00:11:46;97562.16;;;21.45;67.29
35649;BME280;21768;48.562;13.414;2023-06-22T00:14:11;97564.69;;;21.44;67.63
35649;BME280;21768;48.562;13.414;2023-06-22T00:16:37;97562.94;;;21.43;67.60
35649;BME280;21768;48.562;13.414;2023-06-22T00:19:02;97558.69;;;21.43;67.46
35649;BME280;21768;48.562;13.414;2023-06-22T00:21:29;97556.06;;;21.42;67.67
35649;BME280;21768;48.562;13.414;2023-06-22T00:23:54;97562.00;;;21.39;67.59
35649;BME280;21768;48.562;13.414;2023-06-22T00:26:21;97557.63;;;21.35;67.84
35649;BME280;21768;48.562;13.414;2023-06-22T00:28:47;97557.44;;;21.27;67.98
35649;BME280;21768;48.562;13.414;2023-06-22T00:31:13;97550.56;;;21.26;67.93
35649;BME280;21768;48.562;13.414;2023-06-22T00:33:38;97551.31;;;21.22;68.05
35649;BME280;21768;48.562;13.414;2023-06-22T00:36:04;97553.75;;;21.19;68.29
35649;BME280;21768;48.562;13.414;2023-06-22T00:38:29;97563.25;;;21.20;68.27
35649;BME280;21768;48.562;13.414;2023-06-22T00:40:55;97555.53;;;21.20;68.26
35649;BME280;21768;48.562;13.414;2023-06-22T00:43:20;97554.59;;;21.18;68.46
35649;BME280;21768;48.562;13.414;2023-06-22T00:45:46;97557.94;;;21.16;68.47
35649;BME280;21768;48.562;13.414;2023-06-22T00:48:13;97560.50;;;21.16;68.69
35649;BME280;21768;48.562;13.414;2023-06-22T00:50:39;97545.94;;;21.15;68.71
35649;BME280;21768;48.562;13.414;2023-06-22T00:53:07;97533.78;;;21.08;68.62
35649;BME280;21768;48.562;13.414;2023-06-22T00:55:37;97529.38;;;21.02;68.69
35649;BME280;21768;48.562;13.414;2023-06-22T00:58:06;97532.72;;;20.99;68.77
35649;BME280;21768;48.562;13.414;2023-06-22T01:00:33;97532.69;;;20.98;68.88
35649;BME280;21768;48.562;13.414;2023-06-22T01:02:59;97528.41;;;20.98;68.99
35649;BME280;21768;48.562;13.414;2023-06-22T01:05:24;97522.38;;;20.96;69.12
35649;BME280;21768;48.562;13.414;2023-06-22T01:10:44;97508.50;;;20.90;69.12
35649;BME280;21768;48.562;13.414;2023-06-22T01:15:59;97495.47;;;20.82;69.49
35649;BME280;21768;48.562;13.414;2023-06-22T01:18:29;97492.88;;;20.81;69.50
35649;BME280;21768;48.562;13.414;2023-06-22T01:20:56;97497.13;;;20.80;69.55
35649;BME280;21768;48.562;13.414;2023-06-22T01:26:28;97481.56;;;20.73;69.52
35649;BME280;21768;48.562;13.414;2023-06-22T01:29:00;97466.06;;;20.68;69.71
35649;BME280;21768;48.562;13.414;2023-06-22T01:31:28;97454.84;;;20.64;69.85
35649;BME280;21768;48.562;13.414;2023-06-22T01:34:03;97449.53;;;20.58;70.03
35649;BME280;21768;48.562;13.414;2023-06-22T01:36:30;97453.88;;;20.61;70.12
35649;BME280;21768;48.562;13.414;2023-06-22T01:38:57;97461.56;;;20.61;70.22
35649;BME280;21768;48.562;13.414;2023-06-22T01:41:25;97450.38;;;20.57;70.13
35649;BME280;21768;48.562;13.414;2023-06-22T01:43:52;97447.72;;;20.54;70.20
35649;BME280;21768;48.562;13.414;2023-06-22T01:46:18;97446.00;;;20.53;69.98
35649;BME280;21768;48.562;13.414;2023-06-22T01:48:46;97443.41;;;20.52;69.91
35649;BME280;21768;48.562;13.414;2023-06-22T01:51:12;97444.31;;;20.54;69.53
35649;BME280;21768;48.562;13.414;2023-06-22T01:53:37;97438.28;;;20.52;69.42
35649;BME280;21768;48.562;13.414;2023-06-22T01:56:03;97440.84;;;20.52;69.43
35649;BME280;21768;48.562;13.414;2023-06-22T01:58:30;97446.00;;;20.53;69.48
35649;BME280;21768;48.562;13.414;2023-06-22T02:03:34;97440.03;;;20.54;69.36
35649;BME280;21768;48.562;13.414;2023-06-22T02:06:06;97440.00;;;20.53;69.46
35649;BME280;21768;48.562;13.414;2023-06-22T02:08:48;97442.53;;;20.51;69.08
35649;BME280;21768;48.562;13.414;2023-06-22T02:11:16;97446.75;;;20.49;69.28
35649;BME280;21768;48.562;13.414;2023-06-22T02:13:44;97456.91;;;20.46;69.14
35649;BME280;21768;48.562;13.414;2023-06-22T02:16:11;97452.53;;;20.42;69.49
35649;BME280;21768;48.562;13.414;2023-06-22T02:18:37;97449.94;;;20.41;69.08
35649;BME280;21768;48.562;13.414;2023-06-22T02:21:02;97448.16;;;20.38;69.15
35649;BME280;21768;48.562;13.414;2023-06-22T02:23:28;97441.16;;;20.34;69.20
35649;BME280;21768;48.562;13.414;2023-06-22T02:25:53;97440.25;;;20.32;69.28
35649;BME280;21768;48.562;13.414;2023-06-22T02:28:19;97436.81;;;20.31;69.38
35649;BME280;21768;48.562;13.414;2023-06-22T02:30:44;97444.41;;;20.27;69.37
35649;BME280;21768;48.562;13.414;2023-06-22T02:33:09;97443.44;;;20.23;69.66
35649;BME280;21768;48.562;13.414;2023-06-22T02:35:35;97443.41;;;20.22;69.61
35649;BME280;21768;48.562;13.414;2023-06-22T02:38:02;97442.50;;;20.20;69.73
35649;BME280;21768;48.562;13.414;2023-06-22T02:40:28;97442.50;;;20.20;69.64
35649;BME280;21768;48.562;13.414;2023-06-22T02:42:54;97448.44;;;20.19;69.45
35649;BME280;21768;48.562;13.414;2023-06-22T02:45:20;97449.22;;;20.16;69.36
35649;BME280;21768;48.562;13.414;2023-06-22T02:47:46;97451.72;;;20.15;69.30
35649;BME280;21768;48.562;13.414;2023-06-22T02:50:13;97450.84;;;20.14;69.56
35649;BME280;21768;48.562;13.414;2023-06-22T02:52:38;97451.56;;;20.09;69.54
35649;BME280;21768;48.562;13.414;2023-06-22T02:55:05;97449.72;;;20.04;69.58
35649;BME280;21768;48.562;13.414;2023-06-22T02:57:30;97448.91;;;20.05;69.72
35649;BME280;21768;48.562;13.414;2023-06-22T02:59:56;97443.72;;;20.02;69.70
35649;BME280;21768;48.562;13.414;2023-06-22T03:02:21;97435.94;;;19.99;69.70
35649;BME280;21768;48.562;13.414;2023-06-22T03:04:47;97440.09;;;19.96;69.97
35649;BME280;21768;48.562;13.414;2023-06-22T03:07:14;97440.97;;;19.96;69.88
35649;BME280;21768;48.562;13.414;2023-06-22T03:09:39;97448.56;;;19.93;70.02
35649;BME280;21768;48.562;13.414;2023-06-22T03:12:06;97449.38;;;19.92;69.63
35649;BME280;21768;48.562;13.414;2023-06-22T03:14:31;97452.75;;;19.91;69.80
35649;BME280;21768;48.562;13.414;2023-06-22T03:16:57;97457.06;;;19.92;69.93
35649;BME280;21768;48.562;13.414;2023-06-22T03:19:27;97459.72;;;19.95;69.78
35649;BME280;21768;48.562;13.414;2023-06-22T03:21:54;97456.25;;;19.93;69.73
35649;BME280;21768;48.562;13.414;2023-06-22T03:24:19;97470.84;;;19.96;69.78
35649;BME280;21768;48.562;13.414;2023-06-22T03:26:45;97474.31;;;19.98;69.38
35649;BME280;21768;48.562;13.414;2023-06-22T03:29:12;97474.34;;;19.99;69.70
35649;BME280;21768;48.562;13.414;2023-06-22T03:31:37;97466.63;;;19.98;69.81
35649;BME280;21768;48.562;13.414;2023-06-22T03:34:02;97470.06;;;19.98;69.85
35649;BME280;21768;48.562;13.414;2023-06-22T03:36:28;97460.63;;;19.97;69.72
35649;BME280;21768;48.562;13.414;2023-06-22T03:38:53;97454.59;;;19.95;69.93
35649;BME280;21768;48.562;13.414;2023-06-22T03:41:19;97456.44;;;19.99;69.91
35649;BME280;21768;48.562;13.414;2023-06-22T03:43:44;97444.53;;;20.01;69.99
35649;BME280;21768;48.562;13.414;2023-06-22T03:46:10;97447.91;;;20.00;70.14
35649;BME280;21768;48.562;13.414;2023-06-22T03:48:35;97448.78;;;20.01;69.92
35649;BME280;21768;48.562;13.414;2023-06-22T03:51:01;97450.56;;;20.03;69.90
35649;BME280;21768;48.562;13.414;2023-06-22T03:53:28;97439.53;;;20.06;70.03
35649;BME280;21768;48.562;13.414;2023-06-22T03:55:53;97438.75;;;20.09;69.75
35649;BME280;21768;48.562;13.414;2023-06-22T03:58:20;97439.75;;;20.14;69.94
35649;BME280;21768;48.562;13.414;2023-06-22T04:00:50;97439.91;;;20.20;69.75
35649;BME280;21768;48.562;13.414;2023-06-22T04:03:16;97434.09;;;20.25;69.58
35649;BME280;21768;48.562;13.414;2023-06-22T04:05:44;97439.41;;;20.33;69.85
35649;BME280;21768;48.562;13.414;2023-06-22T04:08:09;97433.59;;;20.37;69.30
35649;BME280;21768;48.562;13.414;2023-06-22T04:10:34;97431.25;;;20.45;69.34
35649;BME280;21768;48.562;13.414;2023-06-22T04:13:00;97428.06;;;20.55;69.28
35649;BME280;21768;48.562;13.414;2023-06-22T04:15:25;97427.38;;;20.60;69.14
35649;BME280;21768;48.562;13.414;2023-06-22T04:17:51;97425.88;;;20.68;69.19
35649;BME280;21768;48.562;13.414;2023-06-22T04:20:16;97416.69;;;20.77;68.56
35649;BME280;21768;48.562;13.414;2023-06-22T04:22:42;97414.31;;;20.84;68.07
35649;BME280;21768;48.562;13.414;2023-06-22T04:25:07;97411.16;;;20.94;68.07
35649;BME280;21768;48.562;13.414;2023-06-22T04:27:33;97413.88;;;21.00;68.17
35649;BME280;21768;48.562;13.414;2023-06-22T04:30:06;97413.13;;;21.06;67.99
35649;BME280;21768;48.562;13.414;2023-06-22T04:32:32;97421.97;;;21.17;67.13
35649;BME280;21768;48.562;13.414;2023-06-22T04:34:58;97416.19;;;21.24;66.47
35649;BME280;21768;48.562;13.414;2023-06-22T04:37:25;97412.09;;;21.32;67.00
35649;BME280;21768;48.562;13.414;2023-06-22T04:39:51;97413.97;;;21.39;65.66
35649;BME280;21768;48.562;13.414;2023-06-22T04:42:16;97412.38;;;21.45;65.66
35649;BME280;21768;48.562;13.414;2023-06-22T04:44:41;97404.78;;;21.49;66.05
35649;BME280;21768;48.562;13.414;2023-06-22T04:47:07;97409.31;;;21.61;66.12
35649;BME280;21768;48.562;13.414;2023-06-22T04:49:36;97411.31;;;21.74;66.13
35649;BME280;21768;48.562;13.414;2023-06-22T04:52:07;97397.78;;;21.83;65.74
35649;BME280;21768;48.562;13.414;2023-06-22T04:54:34;97395.34;;;21.89;65.03
35649;BME280;21768;48.562;13.414;2023-06-22T04:57:03;97390.41;;;21.98;65.48
35649;BME280;21768;48.562;13.414;2023-06-22T04:59:30;97391.53;;;22.11;65.88
35649;BME280;21768;48.562;13.414;2023-06-22T05:01:56;97384.91;;;22.22;66.04
35649;BME280;21768;48.562;13.414;2023-06-22T05:04:22;97393.72;;;22.36;65.60
35649;BME280;21768;48.562;13.414;2023-06-22T05:06:51;97392.28;;;22.50;65.47
35649;BME280;21768;48.562;13.414;2023-06-22T05:09:17;97395.03;;;22.61;65.59
35649;BME280;21768;48.562;13.414;2023-06-22T05:11:43;97397.84;;;22.73;64.75
35649;BME280;21768;48.562;13.414;2023-06-22T05:14:08;97397.94;;;22.78;64.18
35649;BME280;21768;48.562;13.414;2023-06-22T05:16:34;97395.47;;;22.84;63.67
35649;BME280;21768;48.562;13.414;2023-06-22T05:19:00;97398.97;;;22.87;63.98
35649;BME280;21768;48.562;13.414;2023-06-22T05:21:26;97399.94;;;22.94;63.87
35649;BME280;21768;48.562;13.414;2023-06-22T05:23:53;97401.72;;;22.98;63.54
35649;BME280;21768;48.562;13.414;2023-06-22T05:26:19;97407.84;;;23.06;63.30
35649;BME280;21768;48.562;13.414;2023-06-22T05:28:45;97401.16;;;23.17;63.38
35649;BME280;21768;48.562;13.414;2023-06-22T05:31:14;97405.66;;;23.30;62.78
35649;BME280;21768;48.562;13.414;2023-06-22T05:33:41;97399.81;;;23.42;63.04
35649;BME280;21768;48.562;13.414;2023-06-22T05:36:07;97407.69;;;23.50;62.87
35649;BME280;21768;48.562;13.414;2023-06-22T05:38:32;97399.13;;;23.52;62.37
35649;BME280;21768;48.562;13.414;2023-06-22T05:40:58;97396.72;;;23.63;62.31
35649;BME280;21768;48.562;13.414;2023-06-22T05:43:23;97402.03;;;23.73;61.35
35649;BME280;21768;48.562;13.414;2023-06-22T05:45:49;97403.81;;;23.81;61.53
35649;BME280;21768;48.562;13.414;2023-06-22T05:48:14;97403.91;;;23.88;60.97
35649;BME280;21768;48.562;13.414;2023-06-22T05:50:40;97399.75;;;23.98;60.40
35649;BME280;21768;48.562;13.414;2023-06-22T05:53:05;97395.56;;;24.09;60.30
35649;BME280;21768;48.562;13.414;2023-06-22T05:55:32;97395.69;;;24.17;60.00
35649;BME280;21768;48.562;13.414;2023-06-22T05:57:58;97400.06;;;24.24;59.08
35649;BME280;21768;48.562;13.414;2023-06-22T06:00:23;97392.44;;;24.33;58.93
35649;BME280;21768;48.562;13.414;2023-06-22T06:02:49;97389.97;;;24.42;59.58
35649;BME280;21768;48.562;13.414;2023-06-22T06:05:14;97397.81;;;24.53;59.51
35649;BME280;21768;48.562;13.414;2023-06-22T06:07:41;97390.19;;;24.63;59.53
35649;BME280;21768;48.562;13.414;2023-06-22T06:10:07;97393.75;;;24.74;58.96
35649;BME280;21768;48.562;13.414;2023-06-22T06:12:33;97399.84;;;24.87;58.94
35649;BME280;21768;48.562;13.414;2023-06-22T06:14:58;97391.31;;;24.94;58.53
35649;BME280;21768;48.562;13.414;2023-06-22T06:17:23;97390.53;;;25.03;58.15
35649;BME280;21768;48.562;13.414;2023-06-22T06:19:49;97403.47;;;25.03;56.96
35649;BME280;21768;48.562;13.414;2023-06-22T06:22:14;97396.66;;;25.13;57.38
35649;BME280;21768;48.562;13.414;2023-06-22T06:24:40;97396.75;;;25.22;58.19
35649;BME280;21768;48.562;13.414;2023-06-22T06:27:05;97395.06;;;25.33;57.59
35649;BME280;21768;48.562;13.414;2023-06-22T06:29:31;97390.03;;;25.47;57.80
35649;BME280;21768;48.562;13.414;2023-06-22T06:31:57;97393.53;;;25.59;58.13
35649;BME280;21768;48.562;13.414;2023-06-22T06:34:22;97386.75;;;25.72;57.62
35649;BME280;21768;48.562;13.414;2023-06-22T06:36:48;97381.59;;;25.83;56.68
35649;BME280;21768;48.562;13.414;2023-06-22T06:39:13;97374.78;;;25.92;56.50
35649;BME280;21768;48.562;13.414;2023-06-22T06:41:39;97376.53;;;26.04;56.42
35649;BME280;21768;48.562;13.414;2023-06-22T06:44:04;97383.47;;;26.17;56.05
35649;BME280;21768;48.562;13.414;2023-06-22T06:46:30;97377.47;;;26.29;55.62
35649;BME280;21768;48.562;13.414;2023-06-22T06:48:55;97371.47;;;26.34;55.42
35649;BME280;21768;48.562;13.414;2023-06-22T06:51:21;97368.91;;;26.40;55.72
35649;BME280;21768;48.562;13.414;2023-06-22T06:53:46;97367.22;;;26.56;54.99
35649;BME280;21768;48.562;13.414;2023-06-22T06:56:12;97365.47;;;26.73;54.79
35649;BME280;21768;48.562;13.414;2023-06-22T06:58:41;97360.34;;;26.89;54.42
35649;BME280;21768;48.562;13.414;2023-06-22T07:01:07;97365.53;;;27.04;53.78
35649;BME280;21768;48.562;13.414;2023-06-22T07:03:33;97362.06;;;27.11;52.49
35649;BME280;21768;48.562;13.414;2023-06-22T07:05:59;97358.63;;;27.18;52.23
35649;BME280;21768;48.562;13.414;2023-06-22T07:08:24;97361.19;;;27.35;53.01
35649;BME280;21768;48.562;13.414;2023-06-22T07:10:51;97356.84;;;27.41;52.95
35649;BME280;21768;48.562;13.414;2023-06-22T07:13:17;97359.44;;;27.32;53.01
35649;BME280;21768;48.562;13.414;2023-06-22T07:15:42;97356.88;;;27.29;52.11
35649;BME280;21768;48.562;13.414;2023-06-22T07:18:07;97361.19;;;27.33;51.84
35649;BME280;21768;48.562;13.414;2023-06-22T07:20:33;97358.59;;;27.36;51.48
35649;BME280;21768;48.562;13.414;2023-06-22T07:22:58;97362.03;;;27.41;51.86
35649;BME280;21768;48.562;13.414;2023-06-22T07:25:23;97359.44;;;27.43;52.04
35649;BME280;21768;48.562;13.414;2023-06-22T07:30:23;97358.53;;;27.70;50.84
35649;BME280;21768;48.562;13.414;2023-06-22T07:32:49;97356.78;;;27.72;50.34
35649;BME280;21768;48.562;13.414;2023-06-22T07:35:14;97352.41;;;27.85;51.47
35649;BME280;21768;48.562;13.414;2023-06-22T07:37:42;97348.00;;;28.03;50.16
35649;BME280;21768;48.562;13.414;2023-06-22T07:40:08;97336.72;;;28.17;50.50
35649;BME280;21768;48.562;13.414;2023-06-22T07:42:33;97333.19;;;28.31;48.92
35649;BME280;21768;48.562;13.414;2023-06-22T07:44:59;97340.91;;;28.45;49.59
35649;BME280;21768;48.562;13.414;2023-06-22T07:47:24;97328.69;;;28.53;48.93
35649;BME280;21768;48.562;13.414;2023-06-22T07:49:54;97333.84;;;28.64;48.17
35649;BME280;21768;48.562;13.414;2023-06-22T07:52:20;97332.88;;;28.71;48.98
35649;BME280;21768;48.562;13.414;2023-06-22T07:54:46;97330.25;;;28.78;49.23
35649;BME280;21768;48.562;13.414;2023-06-22T07:57:12;97317.19;;;28.91;47.47
35649;BME280;21768;48.562;13.414;2023-06-22T07:59:37;97309.31;;;28.98;47.25
35649;BME280;21768;48.562;13.414;2023-06-22T08:02:04;97310.03;;;29.14;47.84
35649;BME280;21768;48.562;13.414;2023-06-22T08:04:30;97312.47;;;29.29;47.31
35649;BME280;21768;48.562;13.414;2023-06-22T08:06:57;97324.53;;;29.36;47.98
35649;BME280;21768;48.562;13.414;2023-06-22T08:09:22;97320.13;;;29.46;46.43
35649;BME280;21768;48.562;13.414;2023-06-22T08:11:47;97328.75;;;29.51;46.68
35649;BME280;21768;48.562;13.414;2023-06-22T08:14:14;97333.06;;;29.52;45.83
35649;BME280;21768;48.562;13.414;2023-06-22T08:16:41;97338.28;;;29.49;45.10
35649;BME280;21768;48.562;13.414;2023-06-22T08:19:06;97327.09;;;29.44;45.05
35649;BME280;21768;48.562;13.414;2023-06-22T08:21:32;97327.81;;;29.57;46.08
35649;BME280;21768;48.562;13.414;2023-06-22T08:23:57;97328.56;;;29.68;45.74
35649;BME280;21768;48.562;13.414;2023-06-22T08:26:23;97323.19;;;29.82;44.54
35649;BME280;21768;48.562;13.414;2023-06-22T08:28:48;97316.97;;;29.93;44.08
35649;BME280;21768;48.562;13.414;2023-06-22T08:31:14;97320.28;;;30.07;44.47
35649;BME280;21768;48.562;13.414;2023-06-22T08:33:39;97316.53;;;30.27;44.33
35649;BME280;21768;48.562;13.414;2023-06-22T08:36:06;97323.31;;;30.38;44.32
35649;BME280;21768;48.562;13.414;2023-06-22T08:38:31;97317.06;;;30.49;43.85
35649;BME280;21768;48.562;13.414;2023-06-22T08:40:57;97315.19;;;30.60;43.29
35649;BME280;21768;48.562;13.414;2023-06-22T08:43:22;97312.34;;;30.75;44.22
35649;BME280;21768;48.562;13.414;2023-06-22T08:45:48;97308.72;;;30.84;43.22
35649;BME280;21768;48.562;13.414;2023-06-22T08:48:13;97310.50;;;30.82;41.71
35649;BME280;21768;48.562;13.414;2023-06-22T08:50:39;97314.06;;;30.76;42.87
35649;BME280;21768;48.562;13.414;2023-06-22T08:53:06;97315.47;;;30.95;42.97
35649;BME280;21768;48.562;13.414;2023-06-22T08:55:31;97315.22;;;31.12;42.96
35649;BME280;21768;48.562;13.414;2023-06-22T08:57:58;97323.69;;;31.23;42.66
35649;BME280;21768;48.562;13.414;2023-06-22T09:00:23;97313.06;;;31.34;40.80
35649;BME280;21768;48.562;13.414;2023-06-22T09:02:48;97313.75;;;31.43;40.04
35649;BME280;21768;48.562;13.414;2023-06-22T09:05:14;97308.78;;;31.76;39.98
35649;BME280;21768;48.562;13.414;2023-06-22T09:07:40;97310.81;;;32.42;39.74
35649;BME280;21768;48.562;13.414;2023-06-22T09:10:06;97304.94;;;33.40;37.64
35649;BME280;21768;48.562;13.414;2023-06-22T09:12:32;97305.16;;;33.31;36.48
35649;BME280;21768;48.562;13.414;2023-06-22T09:14:59;97301.50;;;33.04;38.00
35649;BME280;21768;48.562;13.414;2023-06-22T09:17:28;97297.25;;;33.34;38.62
35649;BME280;21768;48.562;13.414;2023-06-22T09:19:54;97285.59;;;33.44;38.25
35649;BME280;21768;48.562;13.414;2023-06-22T09:22:19;97289.03;;;33.46;37.54
35649;BME280;21768;48.562;13.414;2023-06-22T09:24:45;97282.88;;;33.49;36.70
35649;BME280;21768;48.562;13.414;2023-06-22T09:27:10;97283.31;;;33.65;37.90
35649;BME280;21768;48.562;13.414;2023-06-22T09:29:36;97276.81;;;34.07;37.22
35649;BME280;21768;48.562;13.414;2023-06-22T09:32:01;97286.13;;;34.72;35.20
35649;BME280;21768;48.562;13.414;2023-06-22T09:34:27;97285.06;;;34.79;34.69
35649;BME280;21768;48.562;13.414;2023-06-22T09:36:52;97284.50;;;35.45;33.60
35649;BME280;21768;48.562;13.414;2023-06-22T09:39:18;97279.03;;;35.75;33.09
35649;BME280;21768;48.562;13.414;2023-06-22T09:41:44;97279.38;;;36.36;33.27
35649;BME280;21768;48.562;13.414;2023-06-22T09:44:09;97284.13;;;37.12;31.84
35649;BME280;21768;48.562;13.414;2023-06-22T09:46:34;97280.19;;;38.19;29.80
35649;BME280;21768;48.562;13.414;2023-06-22T09:49:00;97265.97;;;38.94;28.50
35649;BME280;21768;48.562;13.414;2023-06-22T09:51:25;97269.81;;;39.73;27.13
35649;BME280;21768;48.562;13.414;2023-06-22T09:53:51;97264.34;;;41.16;25.92
35649;BME280;21768;48.562;13.414;2023-06-22T09:56:19;97242.41;;;41.57;24.63
35649;BME280;21768;48.562;13.414;2023-06-22T09:58:45;97248.47;;;41.73;24.31
35649;BME280;21768;48.562;13.414;2023-06-22T10:01:11;97251.88;;;41.47;25.28
35649;BME280;21768;48.562;13.414;2023-06-22T10:03:38;97251.31;;;41.11;24.68
35649;BME280;21768;48.562;13.414;2023-06-22T10:06:03;97249.03;;;40.91;24.14
35649;BME280;21768;48.562;13.414;2023-06-22T10:08:29;97248.03;;;41.08;25.20
35649;BME280;21768;48.562;13.414;2023-06-22T10:10:54;97249.59;;;41.55;24.67
35649;BME280;21768;48.562;13.414;2023-06-22T10:13:19;97258.53;;;41.68;24.33
35649;BME280;21768;48.562;13.414;2023-06-22T10:15:45;97251.22;;;40.99;24.53
35649;BME280;21768;48.562;13.414;2023-06-22T10:18:15;97245.88;;;40.39;25.49
35649;BME280;21768;48.562;13.414;2023-06-22T10:20:41;97251.41;;;40.19;24.68
35649;BME280;21768;48.562;13.414;2023-06-22T10:23:06;97245.19;;;40.20;25.42
35649;BME280;21768;48.562;13.414;2023-06-22T10:25:32;97236.69;;;40.76;24.38
35649;BME280;21768;48.562;13.414;2023-06-22T10:27:57;97239.97;;;42.23;22.56
35649;BME280;21768;48.562;13.414;2023-06-22T10:30:22;97248.63;;;43.95;20.98
35649;BME280;21768;48.562;13.414;2023-06-22T10:32:48;97235.16;;;44.22;20.78
35649;BME280;21768;48.562;13.414;2023-06-22T10:35:14;97240.81;;;43.42;20.71
35649;BME280;21768;48.562;13.414;2023-06-22T10:37:42;97237.31;;;42.23;22.08
35649;BME280;21768;48.562;13.414;2023-06-22T10:40:08;97239.97;;;41.68;22.20
35649;BME280;21768;48.562;13.414;2023-06-22T10:42:34;97232.00;;;41.39;23.42
35649;BME280;21768;48.562;13.414;2023-06-22T10:44:59;97227.81;;;40.61;23.93
35649;BME280;21768;48.562;13.414;2023-06-22T10:47:25;97227.59;;;39.71;24.74
35649;BME280;21768;48.562;13.414;2023-06-22T10:49:50;97223.59;;;38.97;25.19
35649;BME280;21768;48.562;13.414;2023-06-22T10:52:15;97217.22;;;38.49;25.87
35649;BME280;21768;48.562;13.414;2023-06-22T10:54:41;97214.56;;;37.94;26.58
35649;BME280;21768;48.562;13.414;2023-06-22T10:57:06;97220.75;;;37.56;28.31
35649;BME280;21768;48.562;13.414;2023-06-22T10:59:32;97216.75;;;37.47;27.33
35649;BME280;21768;48.562;13.414;2023-06-22T11:01:58;97215.41;;;37.18;28.00
35649;BME280;21768;48.562;13.414;2023-06-22T11:04:24;97217.81;;;36.84;28.12
35649;BME280;21768;48.562;13.414;2023-06-22T11:06:49;97200.91;;;36.67;29.10
35649;BME280;21768;48.562;13.414;2023-06-22T11:09:16;97198.34;;;36.66;28.74
35649;BME280;21768;48.562;13.414;2023-06-22T11:11:50;97194.47;;;36.54;28.70
35649;BME280;21768;48.562;13.414;2023-06-22T11:14:16;97205.78;;;36.36;30.17
35649;BME280;21768;48.562;13.414;2023-06-22T11:16:42;97202.72;;;36.25;30.32
35649;BME280;21768;48.562;13.414;2023-06-22T11:19:07;97198.06;;;36.09;30.34
35649;BME280;21768;48.562;13.414;2023-06-22T11:21:33;97201.94;;;35.99;31.01
35649;BME280;21768;48.562;13.414;2023-06-22T11:23:59;97200.63;;;36.11;30.13
35649;BME280;21768;48.562;13.414;2023-06-22T11:26:25;97200.97;;;36.02;30.30
35649;BME280;21768;48.562;13.414;2023-06-22T11:28:52;97200.34;;;35.95;30.63
35649;BME280;21768;48.562;13.414;2023-06-22T11:31:18;97198.75;;;35.91;31.27
35649;BME280;21768;48.562;13.414;2023-06-22T11:33:44;97200.28;;;35.97;31.44
35649;BME280;21768;48.562;13.414;2023-06-22T11:36:11;97192.34;;;35.98;32.01
35649;BME280;21768;48.562;13.414;2023-06-22T11:38:37;97186.25;;;35.98;30.88
35649;BME280;21768;48.562;13.414;2023-06-22T11:41:08;97181.53;;;36.06;31.67
35649;BME280;21768;48.562;13.414;2023-06-22T11:43:34;97179.72;;;36.08;30.78
35649;BME280;21768;48.562;13.414;2023-06-22T11:46:01;97177.22;;;36.05;31.63
35649;BME280;21768;48.562;13.414;2023-06-22T11:48:27;97174.81;;;36.21;31.19
35649;BME280;21768;48.562;13.414;2023-06-22T11:50:53;97174.81;;;36.21;31.70
35649;BME280;21768;48.562;13.414;2023-06-22T11:53:20;97168.63;;;36.22;30.54
35649;BME280;21768;48.562;13.414;2023-06-22T11:55:46;97157.84;;;36.29;30.95
35649;BME280;21768;48.562;13.414;2023-06-22T11:58:12;97159.94;;;36.20;29.84
35649;BME280;21768;48.562;13.414;2023-06-22T12:00:38;97161.66;;;36.21;30.96
35649;BME280;21768;48.562;13.414;2023-06-22T12:03:03;97149.09;;;36.29;30.88
35649;BME280;21768;48.562;13.414;2023-06-22T12:05:29;97151.00;;;36.25;30.05
35649;BME280;21768;48.562;13.414;2023-06-22T12:07:54;97145.69;;;36.27;30.51
35649;BME280;21768;48.562;13.414;2023-06-22T12:10:21;97140.47;;;36.25;31.17
35649;BME280;21768;48.562;13.414;2023-06-22T12:12:46;97137.28;;;36.17;31.03
35649;BME280;21768;48.562;13.414;2023-06-22T12:15:12;97138.84;;;36.21;31.59
35649;BME280;21768;48.562;13.414;2023-06-22T12:17:37;97132.16;;;36.36;31.40
35649;BME280;21768;48.562;13.414;2023-06-22T12:20:03;97126.91;;;36.36;30.82
35649;BME280;21768;48.562;13.414;2023-06-22T12:22:34;97126.63;;;36.42;30.87
35649;BME280;21768;48.562;13.414;2023-06-22T12:25:00;97110.03;;;36.40;29.50
35649;BME280;21768;48.562;13.414;2023-06-22T12:27:26;97124.28;;;36.36;31.50
35649;BME280;21768;48.562;13.414;2023-06-22T12:29:52;97128.00;;;36.30;30.49
35649;BME280;21768;48.562;13.414;2023-06-22T12:32:17;97114.72;;;36.33;30.86
35649;BME280;21768;48.562;13.414;2023-06-22T12:34:44;97114.53;;;36.38;31.05
35649;BME280;21768;48.562;13.414;2023-06-22T12:37:10;97113.69;;;36.37;31.12
35649;BME280;21768;48.562;13.414;2023-06-22T12:39:35;97111.25;;;36.33;30.87
35649;BME280;21768;48.562;13.414;2023-06-22T12:42:01;97110.34;;;36.34;30.89
35649;BME280;21768;48.562;13.414;2023-06-22T12:44:26;97094.28;;;36.40;30.42
35649;BME280;21768;48.562;13.414;2023-06-22T12:46:52;97093.81;;;36.51;30.45
35649;BME280;21768;48.562;13.414;2023-06-22T12:49:17;97089.41;;;36.51;30.67
35649;BME280;21768;48.562;13.414;2023-06-22T12:51:43;97083.97;;;36.56;30.19
35649;BME280;21768;48.562;13.414;2023-06-22T12:54:10;97079.91;;;36.67;30.43
35649;BME280;21768;48.562;13.414;2023-06-22T12:56:36;97091.78;;;36.77;30.63
35649;BME280;21768;48.562;13.414;2023-06-22T12:59:02;97087.31;;;36.79;30.17